Time;durP1;ratioP1;P1;durP2;ratioP2;P2;SDS_P1;SDS_P2;PMS_P1;PMS_P2;Temp;Humidity;BMP_temperature;BMP_pressure;BME280_temperature;BME280_humidity;BME280_pressure;Samples;Min_cycle;Max_cycle;Signal;HPM_P1;HPM_P2
2023/05/04 00:00:20;;;;;;;7.97;4.10;;;8.00;64.70;;;;;;5036334;28;20045;-70
2023/05/04 00:02:46;;;;;;;9.00;4.72;;;8.00;64.90;;;;;;5035914;28;20040;-69
2023/05/04 00:05:12;;;;;;;10.85;4.43;;;7.90;65.00;;;;;;5036480;28;20048;-70
2023/05/04 00:07:38;;;;;;;9.88;4.40;;;7.90;65.20;;;;;;5016582;28;20061;-70
2023/05/04 00:10:04;;;;;;;7.30;4.00;;;7.90;65.50;;;;;;5032678;28;20431;-69
2023/05/04 00:12:30;;;;;;;8.23;4.07;;;7.90;65.60;;;;;;5016276;28;20041;-69
2023/05/04 00:14:56;;;;;;;9.90;4.35;;;7.80;65.70;;;;;;5032848;28;20045;-69
2023/05/04 00:17:21;;;;;;;8.23;4.68;;;7.80;65.80;;;;;;5016252;28;20198;-69
2023/05/04 00:19:47;;;;;;;10.57;5.10;;;7.80;65.90;;;;;;5033110;28;20033;-69
2023/05/04 00:22:13;;;;;;;10.35;5.28;;;7.80;66.00;;;;;;5032528;28;20057;-69
2023/05/04 00:24:38;;;;;;;8.18;4.72;;;7.80;66.20;;;;;;5032367;28;20069;-69
2023/05/04 00:27:04;;;;;;;10.70;5.25;;;7.80;66.30;;;;;;5032542;28;20124;-69
2023/05/04 00:29:30;;;;;;;7.28;4.78;;;7.70;66.50;;;;;;5015758;28;20366;-69
2023/05/04 00:31:55;;;;;;;8.55;4.68;;;7.70;66.50;;;;;;5016188;28;20041;-69
2023/05/04 00:34:21;;;;;;;7.80;5.13;;;7.70;66.60;;;;;;5032282;28;20041;-69
2023/05/04 00:36:47;;;;;;;9.82;4.65;;;7.70;66.80;;;;;;5033755;28;20369;-69
2023/05/04 00:39:13;;;;;;;13.75;5.45;;;7.60;66.70;;;;;;5032694;28;20037;-69
2023/05/04 00:41:38;;;;;;;8.32;4.70;;;7.60;67.00;;;;;;5032248;28;20049;-69
2023/05/04 00:44:05;;;;;;;9.23;4.45;;;7.60;67.00;;;;;;5016055;28;20049;-69
2023/05/04 00:46:32;;;;;;;10.15;5.03;;;7.60;67.10;;;;;;5032166;28;20481;-69
2023/05/04 00:48:58;;;;;;;9.93;4.78;;;7.60;67.20;;;;;;5032456;28;20125;-70
2023/05/04 00:51:25;;;;;;;7.40;4.30;;;7.50;67.40;;;;;;5032217;28;20496;-69
2023/05/04 00:53:54;;;;;;;8.27;4.80;;;7.50;67.30;;;;;;5032164;28;20059;-69
2023/05/04 00:56:23;;;;;;;6.68;4.60;;;7.50;67.50;;;;;;5031376;28;20060;-70
2023/05/04 00:58:53;;;;;;;8.30;4.93;;;7.50;67.40;;;;;;5032693;28;20088;-69
2023/05/04 01:01:20;;;;;;;10.82;5.75;;;7.50;67.50;;;;;;5032292;28;20046;-69
2023/05/04 01:03:47;;;;;;;9.13;5.10;;;7.50;67.60;;;;;;5016761;28;20077;-70
2023/05/04 01:06:57;;;;;;;6.53;4.50;;;7.50;67.70;;;;;;5032510;28;20591;-69
2023/05/04 01:09:42;;;;;;;9.43;4.93;;;7.50;67.70;;;;;;4937209;29;20059;-69
2023/05/04 01:12:32;;;;;;;6.80;4.45;;;7.50;67.60;;;;;;4936810;29;20044;-69
2023/05/04 01:14:59;;;;;;;11.63;5.25;;;7.50;67.70;;;;;;5008397;28;20045;-70
2023/05/04 01:17:25;;;;;;;9.68;5.10;;;7.40;67.70;;;;;;5031693;28;20041;-69
2023/05/04 01:19:52;;;;;;;9.18;5.22;;;7.40;67.70;;;;;;5031894;28;20366;-70
2023/05/04 01:22:19;;;;;;;15.50;6.43;;;7.40;67.80;;;;;;5031359;28;20049;-69
2023/05/04 01:24:45;;;;;;;7.85;5.00;;;7.40;67.90;;;;;;5031726;28;20046;-69
2023/05/04 01:27:22;;;;;;;8.27;5.35;;;7.40;68.00;;;;;;5031217;28;20403;-70
2023/05/04 01:30:15;;;;;;;7.70;4.78;;;7.40;68.30;;;;;;5031712;28;20057;-69
2023/05/04 01:32:43;;;;;;;11.43;5.55;;;7.40;68.50;;;;;;5031045;28;20630;-69
2023/05/04 01:35:11;;;;;;;8.02;5.07;;;7.40;68.30;;;;;;5031634;28;20047;-69
2023/05/04 01:37:37;;;;;;;8.52;5.20;;;7.40;68.40;;;;;;5031542;28;20049;-70
2023/05/04 01:40:04;;;;;;;10.13;4.78;;;7.30;68.40;;;;;;5031552;28;20388;-70
2023/05/04 01:42:29;;;;;;;9.25;5.45;;;7.30;68.60;;;;;;5031849;28;20049;-69
2023/05/04 01:44:55;;;;;;;10.13;5.15;;;7.30;68.60;;;;;;5031545;28;20042;-70
2023/05/04 01:47:21;;;;;;;10.95;5.57;;;7.30;68.70;;;;;;5031674;28;20052;-69
2023/05/04 01:49:47;;;;;;;9.73;4.85;;;7.30;68.80;;;;;;5031096;28;20045;-69
2023/05/04 01:52:13;;;;;;;10.75;5.38;;;7.30;68.80;;;;;;5014656;28;20117;-69
2023/05/04 01:54:38;;;;;;;10.32;5.50;;;7.30;68.80;;;;;;5030884;28;20086;-69
2023/05/04 01:57:04;;;;;;;12.25;5.95;;;7.30;69.00;;;;;;5030945;28;20037;-69
2023/05/04 01:59:30;;;;;;;10.40;5.60;;;7.20;69.00;;;;;;5030877;28;20080;-70
2023/05/04 02:01:56;;;;;;;10.35;5.47;;;7.20;69.10;;;;;;5030734;28;20049;-70
2023/05/04 02:04:21;;;;;;;12.02;6.63;;;7.20;69.10;;;;;;5014517;28;20056;-69
2023/05/04 02:06:47;;;;;;;7.97;5.00;;;7.20;69.30;;;;;;5032849;28;20041;-69
2023/05/04 02:09:13;;;;;;;10.75;5.72;;;7.20;69.30;;;;;;5034291;28;20044;-69
2023/05/04 02:11:39;;;;;;;11.43;5.25;;;7.20;69.50;;;;;;5034323;28;20186;-69
2023/05/04 02:14:04;;;;;;;10.63;5.45;;;7.20;69.50;;;;;;5034032;28;20076;-70
2023/05/04 02:16:30;;;;;;;8.93;5.90;;;7.20;69.50;;;;;;5017894;28;20052;-69
2023/05/04 02:18:56;;;;;;;7.63;5.30;;;7.20;69.60;;;;;;5033996;28;20523;-69
2023/05/04 02:21:22;;;;;;;11.15;5.40;;;7.20;69.60;;;;;;5033864;28;20064;-69
2023/05/04 02:23:48;;;;;;;10.13;5.60;;;7.20;69.80;;;;;;5033747;28;20041;-69
2023/05/04 02:26:13;;;;;;;10.27;5.68;;;7.20;69.60;;;;;;5017371;28;20053;-69
2023/05/04 02:28:39;;;;;;;10.07;5.00;;;7.20;69.80;;;;;;5033760;28;20492;-69
2023/05/04 02:31:05;;;;;;;10.60;6.18;;;7.20;69.70;;;;;;5001103;28;20052;-69
2023/05/04 02:33:30;;;;;;;9.80;6.28;;;7.20;69.70;;;;;;5033910;28;20102;-69
2023/05/04 02:35:56;;;;;;;12.20;5.97;;;7.20;69.80;;;;;;5033735;28;20056;-69
2023/05/04 02:38:22;;;;;;;9.93;5.78;;;7.10;69.80;;;;;;5033692;28;20041;-69
2023/05/04 02:40:48;;;;;;;10.35;6.07;;;7.20;70.00;;;;;;5034033;28;20059;-69
2023/05/04 02:43:13;;;;;;;11.75;6.25;;;7.10;70.00;;;;;;4985076;28;20064;-69
2023/05/04 02:45:39;;;;;;;9.93;6.00;;;7.10;70.00;;;;;;5033430;28;20056;-69
2023/05/04 02:48:06;;;;;;;10.57;6.20;;;7.10;70.10;;;;;;5033639;28;20036;-69
2023/05/04 02:50:32;;;;;;;7.88;5.57;;;7.10;70.20;;;;;;5033598;28;20045;-69
2023/05/04 02:52:57;;;;;;;12.98;7.68;;;7.10;70.20;;;;;;5000926;28;20175;-69
2023/05/04 02:55:23;;;;;;;15.48;6.68;;;7.10;70.30;;;;;;5033352;28;20369;-69
2023/05/04 02:57:49;;;;;;;12.77;6.07;;;7.10;70.40;;;;;;5051454;28;20179;-69
2023/05/04 03:00:15;;;;;;;12.02;6.85;;;7.10;70.40;;;;;;5033745;28;20121;-69
2023/05/04 03:02:41;;;;;;;10.60;6.45;;;7.10;70.40;;;;;;5017059;28;20049;-69
2023/05/04 03:05:07;;;;;;;9.55;6.10;;;7.10;70.50;;;;;;5017372;28;20041;-69
2023/05/04 03:07:32;;;;;;;13.75;6.80;;;7.10;70.60;;;;;;5033343;28;20573;-69
2023/05/04 03:09:58;;;;;;;10.40;6.53;;;7.00;70.60;;;;;;5033508;28;20045;-69
2023/05/04 03:12:24;;;;;;;11.00;6.10;;;7.00;70.60;;;;;;5033674;28;20067;-68
2023/05/04 03:14:50;;;;;;;10.43;5.85;;;7.00;70.70;;;;;;5017403;28;20379;-69
2023/05/04 03:17:15;;;;;;;11.00;6.57;;;7.00;70.80;;;;;;5033479;28;20045;-69
2023/05/04 03:19:41;;;;;;;12.65;7.32;;;7.10;70.70;;;;;;5036651;28;20128;-69
2023/05/04 03:22:07;;;;;;;13.57;7.55;;;7.10;70.80;;;;;;5037280;28;20376;-69
2023/05/04 03:24:33;;;;;;;12.43;6.75;;;7.00;70.70;;;;;;5020564;28;20048;-69
2023/05/04 03:26:58;;;;;;;10.45;6.93;;;7.00;70.80;;;;;;5004577;28;20041;-75
2023/05/04 03:29:25;;;;;;;11.07;6.68;;;7.00;70.90;;;;;;5037229;28;20389;-75
2023/05/04 03:31:50;;;;;;;8.98;6.43;;;7.00;70.90;;;;;;5021313;28;20128;-75
2023/05/04 03:34:20;;;;;;;11.13;6.38;;;7.00;70.90;;;;;;5020587;28;20528;-75
2023/05/04 03:36:47;;;;;;;10.15;6.38;;;7.10;70.90;;;;;;5037262;28;20045;-75
2023/05/04 03:39:13;;;;;;;10.38;7.05;;;7.10;70.90;;;;;;5037072;28;20505;-75
2023/05/04 03:41:39;;;;;;;9.30;6.32;;;7.10;70.90;;;;;;5037232;28;20056;-75
2023/05/04 03:44:06;;;;;;;11.25;6.03;;;7.00;71.30;;;;;;5020618;28;20041;-75
2023/05/04 03:46:32;;;;;;;12.52;7.13;;;7.10;71.00;;;;;;5020456;28;20056;-75
2023/05/04 03:48:57;;;;;;;12.98;7.15;;;7.10;70.90;;;;;;5036889;28;20037;-75
2023/05/04 03:51:23;;;;;;;12.50;6.75;;;7.10;70.80;;;;;;5037186;28;20044;-75
2023/05/04 03:53:49;;;;;;;8.43;5.85;;;7.10;70.70;;;;;;5020133;28;20483;-76
2023/05/04 03:56:15;;;;;;;10.43;6.22;;;7.10;70.80;;;;;;5036914;28;20086;-74
2023/05/04 03:58:41;;;;;;;12.18;6.45;;;7.10;70.70;;;;;;5020300;28;20055;-75
2023/05/04 04:01:07;;;;;;;9.27;7.00;;;7.20;70.70;;;;;;5036483;28;20052;-75
2023/05/04 04:03:35;;;;;;;12.63;7.00;;;7.20;70.60;;;;;;5036588;28;20077;-76
2023/05/04 04:06:02;;;;;;;12.98;7.57;;;7.10;70.50;;;;;;5036213;28;20087;-68
2023/05/04 04:08:28;;;;;;;9.63;6.50;;;7.20;70.60;;;;;;5036252;28;20413;-69
2023/05/04 04:10:54;;;;;;;9.82;6.50;;;7.20;70.50;;;;;;5036276;28;20049;-68
2023/05/04 04:13:20;;;;;;;9.15;6.22;;;7.20;70.40;;;;;;5036435;28;20047;-69
2023/05/04 04:15:45;;;;;;;11.60;6.53;;;7.20;70.30;;;;;;5035827;28;20484;-69
2023/05/04 04:18:11;;;;;;;12.70;7.13;;;7.20;70.40;;;;;;5035890;28;20056;-68
2023/05/04 04:20:37;;;;;;;8.80;6.35;;;7.20;70.50;;;;;;5035754;28;20077;-69
2023/05/04 04:23:03;;;;;;;10.63;6.70;;;7.20;70.50;;;;;;5019455;28;20077;-69
2023/05/04 04:25:29;;;;;;;11.10;6.22;;;7.20;70.50;;;;;;5035411;28;20041;-71
2023/05/04 04:27:55;;;;;;;12.02;6.55;;;7.20;70.40;;;;;;5035918;28;20040;-69
2023/05/04 04:30:21;;;;;;;16.10;6.55;;;7.20;70.40;;;;;;5019505;28;20369;-69
2023/05/04 04:32:48;;;;;;;12.25;6.00;;;7.20;70.50;;;;;;5036417;28;20049;-69
2023/05/04 04:35:14;;;;;;;8.23;6.22;;;7.20;70.60;;;;;;5035928;28;20515;-69
2023/05/04 04:37:40;;;;;;;10.40;5.93;;;7.20;70.60;;;;;;5035928;28;20045;-70
2023/05/04 04:40:06;;;;;;;10.13;6.47;;;7.20;70.50;;;;;;5035536;28;20126;-69
2023/05/04 04:42:33;;;;;;;10.95;5.82;;;7.30;70.40;;;;;;5035513;28;20052;-69
2023/05/04 04:44:59;;;;;;;11.05;6.65;;;7.30;70.30;;;;;;5053554;28;20119;-70
2023/05/04 04:47:25;;;;;;;11.45;7.03;;;7.30;70.30;;;;;;5035318;28;20468;-69
2023/05/04 04:49:51;;;;;;;11.15;6.72;;;7.30;70.20;;;;;;5035565;28;20084;-70
2023/05/04 04:52:17;;;;;;;9.65;6.13;;;7.30;70.10;;;;;;5035359;28;20043;-70
2023/05/04 04:54:44;;;;;;;13.05;6.57;;;7.30;70.10;;;;;;5035080;28;20467;-69
2023/05/04 04:57:10;;;;;;;11.23;6.60;;;7.30;70.20;;;;;;5035261;28;20044;-69
2023/05/04 04:59:36;;;;;;;13.43;6.75;;;7.30;70.30;;;;;;5035107;28;20068;-69
2023/05/04 05:02:03;;;;;;;14.77;7.75;;;7.30;70.20;;;;;;5035348;28;20053;-70
2023/05/04 05:04:29;;;;;;;10.93;6.43;;;7.40;70.30;;;;;;5035496;28;20052;-69
2023/05/04 05:06:55;;;;;;;11.07;6.82;;;7.30;70.20;;;;;;5035122;28;20260;-69
2023/05/04 05:09:21;;;;;;;11.15;6.35;;;7.40;70.40;;;;;;5035437;28;20044;-70
2023/05/04 05:11:46;;;;;;;10.52;6.63;;;7.40;70.50;;;;;;5035059;28;20477;-70
2023/05/04 05:14:12;;;;;;;11.82;7.35;;;7.40;70.60;;;;;;5035216;28;20391;-69
2023/05/04 05:16:38;;;;;;;11.57;6.80;;;7.40;70.60;;;;;;5034958;28;20033;-70
2023/05/04 05:19:04;;;;;;;9.68;6.55;;;7.40;70.60;;;;;;5035152;28;20429;-70
2023/05/04 05:21:29;;;;;;;15.38;7.28;;;7.40;70.80;;;;;;5035000;28;20392;-70
2023/05/04 05:23:55;;;;;;;12.20;7.30;;;7.40;70.80;;;;;;5034494;28;20430;-69
2023/05/04 05:26:21;;;;;;;10.82;7.07;;;7.40;70.80;;;;;;5018290;28;20045;-69
2023/05/04 05:28:46;;;;;;;11.43;6.72;;;7.50;71.00;;;;;;5034530;28;20041;-70
2023/05/04 05:31:12;;;;;;;9.90;6.97;;;7.50;71.10;;;;;;5035001;28;20036;-70
2023/05/04 05:33:39;;;;;;;11.80;6.70;;;7.50;71.10;;;;;;5034625;28;20033;-70
2023/05/04 05:36:05;;;;;;;16.13;8.80;;;7.50;71.20;;;;;;5018293;28;20051;-70
2023/05/04 05:38:31;;;;;;;11.98;7.57;;;7.60;71.30;;;;;;5034458;28;20044;-68
2023/05/04 05:40:57;;;;;;;11.55;7.32;;;7.60;71.30;;;;;;5033818;28;20059;-68
2023/05/04 05:43:22;;;;;;;14.57;7.43;;;7.60;71.30;;;;;;5034802;28;20041;-68
2023/05/04 05:45:48;;;;;;;13.77;7.28;;;7.70;71.50;;;;;;5034308;28;20037;-69
2023/05/04 05:48:14;;;;;;;9.00;6.43;;;7.80;71.40;;;;;;5034379;28;20044;-69
2023/05/04 05:50:40;;;;;;;12.82;7.90;;;7.90;71.30;;;;;;5001706;28;20044;-69
2023/05/04 05:53:06;;;;;;;15.90;7.68;;;7.90;71.20;;;;;;5034267;28;20041;-69
2023/05/04 05:55:31;;;;;;;13.00;7.45;;;8.00;70.90;;;;;;5034709;28;20091;-69
2023/05/04 05:57:57;;;;;;;12.23;7.68;;;8.00;70.80;;;;;;5052886;28;20110;-68
2023/05/04 06:00:23;;;;;;;11.70;7.10;;;8.10;71.00;;;;;;5034362;28;20037;-69
2023/05/04 06:02:50;;;;;;;14.82;7.38;;;8.10;70.90;;;;;;5034512;28;20055;-69
2023/05/04 06:05:16;;;;;;;13.52;7.47;;;8.20;70.50;;;;;;5034172;28;20049;-68
2023/05/04 06:07:41;;;;;;;12.60;8.10;;;8.20;70.20;;;;;;5033902;28;20057;-69
2023/05/04 06:10:08;;;;;;;12.88;8.00;;;8.30;70.20;;;;;;5017803;28;20049;-69
2023/05/04 06:12:34;;;;;;;12.10;7.40;;;8.40;70.20;;;;;;5034138;28;20166;-69
2023/05/04 06:15:00;;;;;;;12.15;7.60;;;8.40;70.10;;;;;;5018172;28;20120;-75
2023/05/04 06:17:25;;;;;;;10.02;6.78;;;8.50;69.90;;;;;;5034402;28;20510;-75
2023/05/04 06:19:51;;;;;;;11.77;7.75;;;8.50;69.40;;;;;;5034330;28;20099;-75
2023/05/04 06:22:17;;;;;;;12.20;7.82;;;8.60;69.60;;;;;;5034253;28;20448;-75
2023/05/04 06:24:42;;;;;;;11.50;7.38;;;8.60;69.70;;;;;;5034314;28;20045;-75
2023/05/04 06:27:08;;;;;;;15.70;8.07;;;8.70;69.60;;;;;;5017875;28;20041;-75
2023/05/04 06:29:37;;;;;;;11.88;7.15;;;8.70;69.30;;;;;;5017947;28;20063;-75
2023/05/04 06:32:02;;;;;;;11.68;7.75;;;8.80;69.20;;;;;;5034252;28;20045;-75
2023/05/04 06:34:28;;;;;;;13.20;7.95;;;8.90;69.40;;;;;;5033867;28;20373;-75
2023/05/04 06:36:54;;;;;;;10.82;7.55;;;9.00;68.90;;;;;;5034012;28;20045;-75
2023/05/04 06:39:20;;;;;;;12.95;8.30;;;9.10;69.00;;;;;;5033717;28;20056;-75
2023/05/04 06:41:45;;;;;;;14.68;8.52;;;9.20;69.40;;;;;;5017356;28;20203;-75
2023/05/04 06:44:11;;;;;;;14.95;8.32;;;9.30;69.30;;;;;;5033594;28;20049;-75
2023/05/04 06:46:37;;;;;;;11.15;7.55;;;9.30;68.70;;;;;;5034038;28;20111;-75
2023/05/04 06:49:03;;;;;;;13.95;8.25;;;9.50;68.60;;;;;;5017415;28;20045;-75
2023/05/04 06:51:29;;;;;;;11.93;7.78;;;9.60;68.60;;;;;;5033964;28;20041;-75
2023/05/04 06:53:55;;;;;;;15.18;7.50;;;9.80;68.30;;;;;;5035605;28;20477;-75
2023/05/04 06:56:22;;;;;;;15.48;8.55;;;9.90;67.90;;;;;;5021285;28;20140;-76
2023/05/04 06:58:51;;;;;;;12.48;7.88;;;10.10;67.40;;;;;;5037739;28;20048;-76
2023/05/04 07:01:17;;;;;;;14.68;7.63;;;10.20;67.20;;;;;;5021510;28;20407;-76
2023/05/04 07:03:43;;;;;;;11.10;7.78;;;10.30;66.80;;;;;;5037559;28;20049;-75
2023/05/04 07:06:09;;;;;;;10.43;7.35;;;10.40;65.90;;;;;;5037925;28;20041;-76
2023/05/04 07:08:34;;;;;;;12.90;8.25;;;10.50;65.50;;;;;;5020968;28;20385;-76
2023/05/04 07:11:00;;;;;;;11.80;7.55;;;10.60;65.60;;;;;;5021251;28;20094;-75
2023/05/04 07:13:26;;;;;;;12.30;7.80;;;10.60;65.10;;;;;;5037689;28;20037;-76
2023/05/04 07:15:52;;;;;;;13.32;8.23;;;10.70;64.80;;;;;;5037643;28;20514;-75
2023/05/04 07:18:18;;;;;;;10.77;7.32;;;10.80;65.00;;;;;;5038136;28;20041;-76
2023/05/04 07:20:43;;;;;;;15.10;8.13;;;10.80;64.80;;;;;;5038209;28;20080;-75
2023/05/04 07:23:10;;;;;;;11.80;7.65;;;10.90;64.40;;;;;;5021894;28;20110;-76
2023/05/04 07:25:35;;;;;;;12.38;7.45;;;10.90;63.70;;;;;;5037932;28;20049;-76
2023/05/04 07:28:01;;;;;;;11.77;7.20;;;11.00;63.10;;;;;;5038024;28;20064;-76
2023/05/04 07:30:27;;;;;;;10.45;6.45;;;11.00;63.40;;;;;;5021510;28;20037;-75
2023/05/04 07:32:52;;;;;;;10.15;6.88;;;11.10;63.40;;;;;;5038212;28;20049;-76
2023/05/04 07:35:18;;;;;;;12.10;7.43;;;11.10;63.00;;;;;;5055804;28;20103;-75
2023/05/04 07:37:45;;;;;;;11.05;7.13;;;11.10;62.70;;;;;;5038151;28;20076;-75
2023/05/04 07:40:13;;;;;;;12.30;7.35;;;11.20;63.20;;;;;;5021369;28;20049;-75
2023/05/04 07:42:39;;;;;;;12.70;7.00;;;11.20;63.30;;;;;;5038008;28;20114;-70
2023/05/04 07:45:07;;;;;;;10.32;6.90;;;11.40;64.10;;;;;;5037405;28;20037;-68
2023/05/04 07:47:33;;;;;;;11.63;6.97;;;11.50;64.00;;;;;;5037163;28;20128;-68
2023/05/04 07:49:59;;;;;;;10.88;7.15;;;11.60;63.90;;;;;;5004451;28;20044;-68
2023/05/04 07:52:25;;;;;;;10.55;6.47;;;11.80;63.80;;;;;;5037383;28;20045;-68
2023/05/04 07:54:52;;;;;;;10.82;7.07;;;11.90;63.20;;;;;;5037016;28;20479;-69
2023/05/04 07:57:18;;;;;;;10.38;7.35;;;12.00;63.00;;;;;;5037213;28;20048;-68
2023/05/04 07:59:43;;;;;;;9.98;6.70;;;12.20;63.40;;;;;;5037463;28;20049;-69
2023/05/04 08:02:09;;;;;;;10.60;6.25;;;12.30;62.20;;;;;;5004510;28;20502;-69
2023/05/04 08:04:35;;;;;;;9.63;6.47;;;12.50;60.80;;;;;;5038076;28;20047;-69
2023/05/04 08:07:01;;;;;;;9.98;6.60;;;12.60;59.10;;;;;;5020653;28;20057;-68
2023/05/04 08:09:26;;;;;;;14.77;6.93;;;12.60;58.90;;;;;;5036737;28;20110;-68
2023/05/04 08:11:52;;;;;;;13.55;6.80;;;12.70;59.90;;;;;;5036397;28;20068;-69
2023/05/04 08:14:18;;;;;;;10.75;6.82;;;12.80;59.80;;;;;;5036455;28;20040;-69
2023/05/04 08:16:44;;;;;;;10.63;6.78;;;12.90;59.50;;;;;;5036376;28;20040;-69
2023/05/04 08:19:10;;;;;;;9.45;5.95;;;13.00;58.80;;;;;;5036173;28;20120;-68
2023/05/04 08:21:35;;;;;;;10.05;6.72;;;13.00;58.50;;;;;;5036372;28;20056;-69
2023/05/04 08:24:01;;;;;;;9.70;6.55;;;13.10;58.40;;;;;;5020115;28;20484;-70
2023/05/04 08:26:27;;;;;;;11.27;6.68;;;13.20;58.80;;;;;;5036536;28;20102;-69
2023/05/04 08:28:52;;;;;;;8.23;6.13;;;13.20;58.40;;;;;;5036221;28;20041;-70
2023/05/04 08:31:18;;;;;;;10.07;6.22;;;13.40;58.40;;;;;;5035962;28;20124;-69
2023/05/04 08:33:47;;;;;;;12.70;7.82;;;13.50;57.60;;;;;;5035909;28;20037;-70
2023/05/04 08:36:13;;;;;;;10.50;6.47;;;13.50;56.70;;;;;;5036054;28;20044;-69
2023/05/04 08:38:38;;;;;;;9.55;6.38;;;13.60;57.10;;;;;;5035783;28;20507;-70
2023/05/04 08:41:05;;;;;;;10.50;7.05;;;13.70;57.10;;;;;;5035916;28;20080;-70
2023/05/04 08:43:37;;;;;;;11.20;6.55;;;13.90;56.70;;;;;;5035911;28;20110;-70
2023/05/04 08:46:03;;;;;;;10.35;6.57;;;14.00;56.20;;;;;;5035458;28;20045;-69
2023/05/04 08:48:32;;;;;;;12.02;5.88;;;14.00;55.60;;;;;;5035591;28;20048;-70
2023/05/04 08:50:59;;;;;;;10.93;6.72;;;14.10;56.20;;;;;;5035682;28;20383;-70
2023/05/04 08:53:26;;;;;;;13.88;6.85;;;14.20;56.60;;;;;;5035437;28;20114;-70
2023/05/04 08:55:54;;;;;;;9.55;6.78;;;14.30;55.80;;;;;;5018811;28;20044;-70
2023/05/04 08:58:23;;;;;;;11.77;6.93;;;14.30;55.10;;;;;;5035344;28;20044;-70
2023/05/04 09:00:49;;;;;;;11.38;6.53;;;14.30;55.40;;;;;;5035584;28;20080;-70
2023/05/04 09:03:15;;;;;;;11.65;6.07;;;14.40;55.40;;;;;;5018749;28;20049;-70
2023/05/04 09:05:45;;;;;;;9.13;6.00;;;14.50;55.00;;;;;;5035207;28;20124;-70
2023/05/04 09:08:11;;;;;;;11.20;6.22;;;14.60;55.30;;;;;;5034556;28;20106;-70
2023/05/04 09:10:37;;;;;;;9.88;6.53;;;14.70;54.50;;;;;;5035252;28;20095;-70
2023/05/04 09:13:02;;;;;;;9.80;6.40;;;14.80;54.20;;;;;;5034926;28;20457;-70
2023/05/04 09:15:28;;;;;;;15.05;7.80;;;14.80;53.70;;;;;;5034354;28;20041;-70
2023/05/04 09:18:05;;;;;;;11.05;7.38;;;14.90;54.20;;;;;;5034459;28;20119;-70
2023/05/04 09:20:51;;;;;;;13.75;6.57;;;15.00;54.30;;;;;;5034687;28;20040;-70
2023/05/04 09:23:17;;;;;;;20.17;9.35;;;15.10;53.90;;;;;;5034843;28;20093;-76
2023/05/04 09:25:50;;;;;;;10.55;6.40;;;15.30;53.70;;;;;;5034385;28;20048;-70
2023/05/04 09:28:17;;;;;;;10.13;5.75;;;15.40;53.60;;;;;;5034728;28;20515;-70
2023/05/04 09:30:43;;;;;;;8.20;5.80;;;15.50;53.80;;;;;;5018389;28;20048;-70
2023/05/04 09:33:12;;;;;;;9.80;6.03;;;15.70;53.80;;;;;;5034903;28;20045;-70
2023/05/04 09:35:43;;;;;;;9.82;6.10;;;15.90;53.00;;;;;;5034737;28;20037;-70
2023/05/04 09:38:09;;;;;;;8.32;5.97;;;16.00;51.50;;;;;;5018672;28;20071;-70
2023/05/04 09:40:37;;;;;;;6.97;5.35;;;16.20;52.70;;;;;;5034710;28;20041;-70
2023/05/04 09:43:03;;;;;;;9.48;5.22;;;16.30;51.30;;;;;;5018010;28;20044;-70
2023/05/04 09:45:47;;;;;;;10.25;5.40;;;16.40;51.10;;;;;;5034819;28;20036;-76
2023/05/04 09:48:28;;;;;;;;;;;16.60;51.40;;;;;;5032596;28;20053;-77
2023/05/04 09:50:58;;;;;;;8.10;5.05;;;16.70;50.90;;;;;;5018541;28;19924;-76
2023/05/04 09:53:26;;;;;;;6.22;4.80;;;16.70;49.80;;;;;;5035348;28;20147;-76
2023/05/04 09:55:58;;;;;;;13.05;5.30;;;16.80;49.60;;;;;;5034942;28;20051;-76
2023/05/04 09:58:24;;;;;;;7.75;5.18;;;16.80;49.00;;;;;;5035297;28;20055;-76
2023/05/04 10:00:52;;;;;;;9.32;4.30;;;16.90;49.60;;;;;;5035760;28;20044;-76
2023/05/04 10:03:22;;;;;;;8.65;4.75;;;16.90;49.30;;;;;;5055069;28;20041;-69
2023/05/04 10:05:48;;;;;;;8.02;4.78;;;17.00;48.40;;;;;;5041055;28;20055;-76
2023/05/04 10:08:16;;;;;;;8.45;4.70;;;17.10;49.60;;;;;;5042525;28;20061;-76
2023/05/04 10:10:42;;;;;;;11.50;5.18;;;17.10;48.20;;;;;;5034481;28;20095;-70
2023/05/04 10:13:08;;;;;;;6.80;4.38;;;17.20;48.40;;;;;;5017768;28;20052;-70
2023/05/04 10:15:37;;;;;;;8.00;4.70;;;17.30;48.20;;;;;;5017423;28;20563;-70
2023/05/04 10:18:23;;;;;;;6.47;4.22;;;17.40;47.70;;;;;;5018030;28;20045;-70
2023/05/04 10:20:49;;;;;;;9.05;4.25;;;17.50;46.90;;;;;;5033875;28;20491;-70
2023/05/04 10:23:52;;;;;;;8.93;4.72;;;17.60;48.00;;;;;;5033993;28;20075;-70
2023/05/04 10:26:58;;;;;;;7.47;4.03;;;17.70;47.90;;;;;;5033934;28;20439;-70
2023/05/04 10:29:27;;;;;;;8.57;4.68;;;17.90;47.60;;;;;;5017882;28;20033;-69
2023/05/04 10:31:53;;;;;;;7.50;4.20;;;18.00;46.60;;;;;;5001483;28;20044;-70
2023/05/04 10:34:33;;;;;;;8.93;3.58;;;18.10;46.80;;;;;;5033984;28;20036;-76
2023/05/04 10:37:00;;;;;;;7.63;4.13;;;18.30;46.20;;;;;;5034210;28;20049;-70
2023/05/04 10:39:31;;;;;;;5.28;3.60;;;18.30;45.20;;;;;;5034838;28;20079;-76
2023/05/04 10:42:02;;;;;;;6.80;3.40;;;18.40;45.10;;;;;;5034178;28;20052;-69
2023/05/04 10:44:32;;;;;;;5.97;2.83;;;18.50;42.50;;;;;;5033492;28;20128;-69
2023/05/04 10:47:05;;;;;;;5.47;2.90;;;18.50;40.80;;;;;;5033405;28;20048;-76
2023/05/04 10:49:32;;;;;;;7.18;3.60;;;18.60;41.00;;;;;;5033812;28;20068;-76
2023/05/04 10:52:04;;;;;;;7.75;3.35;;;18.60;40.90;;;;;;5033851;28;20437;-75
2023/05/04 10:54:30;;;;;;;6.80;3.78;;;18.60;40.90;;;;;;5033966;28;20043;-76
2023/05/04 10:57:15;;;;;;;8.95;3.25;;;18.60;40.70;;;;;;5034282;28;20508;-76
2023/05/04 10:59:42;;;;;;;6.22;3.05;;;18.70;40.40;;;;;;5051863;28;20067;-76
2023/05/04 11:02:08;;;;;;;8.15;3.08;;;18.70;39.70;;;;;;5034032;28;20048;-76
2023/05/04 11:04:34;;;;;;;13.65;4.60;;;18.70;39.90;;;;;;5017788;28;20045;-76
2023/05/04 11:07:02;;;;;;;6.85;3.33;;;18.70;39.70;;;;;;5033471;28;20056;-76
2023/05/04 11:09:36;;;;;;;6.32;3.78;;;18.70;40.10;;;;;;5033876;28;20060;-76
2023/05/04 11:12:02;;;;;;;6.85;3.13;;;18.80;39.90;;;;;;5033767;28;20119;-76
2023/05/04 11:14:28;;;;;;;7.53;3.50;;;18.80;40.40;;;;;;5033839;28;20124;-77
2023/05/04 11:17:14;;;;;;;5.53;3.45;;;18.90;39.50;;;;;;5034088;28;20080;-76
2023/05/04 11:19:51;;;;;;;6.03;3.58;;;19.00;39.00;;;;;;5033521;28;20053;-74
2023/05/04 11:22:17;;;;;;;6.38;3.58;;;19.00;38.70;;;;;;5033675;28;20064;-76
2023/05/04 11:24:45;;;;;;;7.65;3.40;;;18.90;38.50;;;;;;5033642;28;20052;-76
2023/05/04 11:27:27;;;;;;;5.03;2.85;;;18.90;38.70;;;;;;5033603;28;20535;-76
2023/05/04 11:29:58;;;;;;;6.03;2.97;;;18.90;38.30;;;;;;5018535;28;20045;-76
2023/05/04 11:32:34;;;;;;;9.10;3.45;;;18.90;37.80;;;;;;5035954;28;20044;-75
2023/05/04 11:35:01;;;;;;;7.95;2.85;;;18.90;38.60;;;;;;5035683;28;20120;-74
2023/05/04 11:37:36;;;;;;;6.35;3.20;;;19.00;38.60;;;;;;5034375;28;20049;-76
2023/05/04 11:40:06;;;;;;;6.75;3.20;;;19.00;37.90;;;;;;5036153;28;20405;-75
2023/05/04 11:42:32;;;;;;;6.85;3.40;;;19.00;37.90;;;;;;5038105;28;20049;-76
2023/05/04 11:44:58;;;;;;;7.55;3.22;;;19.10;37.80;;;;;;5021002;28;20385;-76
2023/05/04 11:47:25;;;;;;;6.00;2.58;;;19.10;38.10;;;;;;5055468;28;20119;-75
2023/05/04 11:49:51;;;;;;;4.00;2.50;;;19.10;38.00;;;;;;5021032;28;20480;-76
2023/05/04 11:52:23;;;;;;;5.93;3.10;;;19.10;37.30;;;;;;5037385;28;20550;-76
2023/05/04 11:54:56;;;;;;;5.90;2.63;;;19.20;36.40;;;;;;5036976;28;20102;-75
2023/05/04 11:57:22;;;;;;;6.18;2.80;;;19.10;37.10;;;;;;5036928;28;20143;-76
2023/05/04 11:59:48;;;;;;;8.00;2.90;;;19.20;37.00;;;;;;5037327;28;20041;-75
2023/05/04 12:02:15;;;;;;;6.07;2.75;;;19.20;37.20;;;;;;5036799;28;20126;-75
2023/05/04 12:04:41;;;;;;;6.28;3.35;;;19.20;36.90;;;;;;5036938;28;20045;-76
2023/05/04 12:07:07;;;;;;;7.47;2.78;;;19.30;36.60;;;;;;5036638;28;20033;-75
2023/05/04 12:09:46;;;;;;;7.03;4.25;;;19.30;36.40;;;;;;5036801;28;20059;-68
2023/05/04 12:12:15;;;;;;;5.65;2.47;;;19.40;36.30;;;;;;5036715;28;20417;-68
2023/05/04 12:14:51;;;;;;;6.32;2.88;;;19.40;36.80;;;;;;5036182;28;20037;-68
2023/05/04 12:17:19;;;;;;;8.27;2.40;;;19.50;36.80;;;;;;5019871;28;20080;-69
2023/05/04 12:19:52;;;;;;;6.30;2.72;;;19.60;37.00;;;;;;5036150;28;20547;-68
2023/05/04 12:22:28;;;;;;;5.82;3.10;;;19.60;37.00;;;;;;5036180;28;20045;-69
2023/05/04 12:24:57;;;;;;;7.03;3.30;;;19.70;36.60;;;;;;5035928;28;20053;-69
2023/05/04 12:27:24;;;;;;;7.28;3.15;;;19.70;38.00;;;;;;5036041;28;20052;-68
2023/05/04 12:29:50;;;;;;;4.80;2.88;;;19.80;37.50;;;;;;5036131;28;20504;-69
2023/05/04 12:32:16;;;;;;;7.20;3.80;;;19.90;36.60;;;;;;5019744;28;20051;-68
2023/05/04 12:34:42;;;;;;;7.72;3.72;;;19.90;36.50;;;;;;5019596;28;20041;-68
2023/05/04 12:37:07;;;;;;;4.72;3.00;;;19.90;36.60;;;;;;5035877;28;20041;-68
2023/05/04 12:39:33;;;;;;;4.95;2.55;;;20.00;36.40;;;;;;5035963;28;20094;-69
2023/05/04 12:42:05;;;;;;;5.97;2.97;;;20.00;36.30;;;;;;5035697;28;20139;-69
2023/05/04 12:44:31;;;;;;;5.97;2.40;;;20.10;36.40;;;;;;5036243;28;20068;-68
2023/05/04 12:46:56;;;;;;;4.43;2.20;;;20.10;36.00;;;;;;5035898;28;20485;-68
2023/05/04 12:49:22;;;;;;;6.20;2.80;;;20.10;35.80;;;;;;5019516;28;20052;-68